Time;durP1;ratioP1;P1;durP2;ratioP2;P2;SDS_P1;SDS_P2;PMS_P1;PMS_P2;Temp;Humidity;BMP_temperature;BMP_pressure;BME280_temperature;BME280_humidity;BME280_pressure;Samples;Min_cycle;Max_cycle;Signal;HPM_P1;HPM_P2
2021/01/03 00:01:44;;;;;;;;;99.00;79.00;;;;;;;;4949611;28;8837;-79
2021/01/03 00:04:12;;;;;;;;;97.67;80.67;;;;;;;;4954428;28;8913;-77
2021/01/03 00:06:38;;;;;;;;;100.00;84.33;;;;;;;;4940594;28;8904;-77
2021/01/03 00:09:06;;;;;;;;;93.00;73.33;;;;;;;;4955686;28;8913;-77
2021/01/03 00:11:33;;;;;;;;;97.33;73.33;;;;;;;;4958497;28;8899;-78
2021/01/03 00:14:00;;;;;;;;;98.00;83.67;;;;;;;;4947681;28;8858;-76
2021/01/03 00:16:27;;;;;;;;;109.33;97.00;;;;;;;;4949674;28;8885;-76
2021/01/03 00:18:54;;;;;;;;;81.67;65.33;;;;;;;;4946801;28;8875;-81
2021/01/03 00:21:22;;;;;;;;;105.33;84.33;;;;;;;;4933130;28;8877;-77
2021/01/03 00:23:49;;;;;;;;;105.67;90.33;;;;;;;;4956762;28;8910;-77
2021/01/03 00:26:16;;;;;;;;;109.33;95.67;;;;;;;;4945221;28;8897;-80
2021/01/03 00:28:44;;;;;;;;;104.33;86.67;;;;;;;;4953157;28;8917;-77
2021/01/03 00:31:11;;;;;;;;;109.00;99.67;;;;;;;;4947592;28;8852;-77
2021/01/03 00:33:38;;;;;;;;;106.67;91.67;;;;;;;;4950231;28;8857;-77
2021/01/03 00:36:05;;;;;;;;;102.67;89.00;;;;;;;;4953387;28;8855;-79
2021/01/03 00:38:33;;;;;;;;;113.00;101.00;;;;;;;;4951268;28;8875;-78
2021/01/03 00:41:00;;;;;;;;;103.00;85.67;;;;;;;;4951427;28;8889;-76
2021/01/03 00:43:27;;;;;;;;;98.67;76.33;;;;;;;;4948090;28;8895;-79
2021/01/03 00:45:54;;;;;;;;;104.00;88.33;;;;;;;;4947758;28;8877;-80
2021/01/03 00:48:21;;;;;;;;;91.33;73.00;;;;;;;;4953158;28;8883;-80
2021/01/03 00:50:48;;;;;;;;;96.33;75.00;;;;;;;;4947110;28;8883;-82
2021/01/03 00:53:14;;;;;;;;;100.67;83.00;;;;;;;;4950017;28;8865;-78
2021/01/03 00:55:42;;;;;;;;;99.67;74.00;;;;;;;;4952106;28;8869;-80
2021/01/03 00:58:10;;;;;;;;;95.00;74.67;;;;;;;;4932423;28;8960;-78
2021/01/03 01:00:36;;;;;;;;;95.33;71.00;;;;;;;;4946526;28;8841;-78
2021/01/03 01:03:05;;;;;;;;;92.33;73.00;;;;;;;;4944478;28;8885;-79
2021/01/03 01:05:32;;;;;;;;;91.00;72.67;;;;;;;;4962301;28;8886;-79
2021/01/03 01:07:59;;;;;;;;;94.67;73.67;;;;;;;;4930653;28;8878;-79
2021/01/03 01:10:27;;;;;;;;;86.00;67.67;;;;;;;;4946429;28;8984;-80
2021/01/03 01:12:57;;;;;;;;;98.67;81.67;;;;;;;;4928849;28;8885;-80
2021/01/03 01:15:25;;;;;;;;;102.00;78.67;;;;;;;;4959057;28;8875;-79
2021/01/03 01:17:54;;;;;;;;;93.00;73.33;;;;;;;;4954283;28;8869;-82
2021/01/03 01:20:24;;;;;;;;;95.00;74.67;;;;;;;;4956791;28;9718;-81
2021/01/03 01:22:51;;;;;;;;;94.33;72.33;;;;;;;;4947826;28;8897;-83
2021/01/03 01:25:19;;;;;;;;;98.67;80.67;;;;;;;;4955729;28;9381;-80
2021/01/03 01:27:46;;;;;;;;;97.67;76.00;;;;;;;;4952349;28;8865;-78
2021/01/03 01:30:16;;;;;;;;;95.33;75.67;;;;;;;;4954169;28;8879;-80
2021/01/03 01:32:43;;;;;;;;;105.33;83.00;;;;;;;;4938350;28;8869;-80
2021/01/03 01:35:14;;;;;;;;;99.67;79.67;;;;;;;;4951261;28;8876;-80
2021/01/03 01:37:41;;;;;;;;;100.00;83.00;;;;;;;;4949186;28;8878;-79
2021/01/03 01:40:11;;;;;;;;;98.67;72.67;;;;;;;;4945651;28;8885;-83
2021/01/03 01:42:37;;;;;;;;;96.00;73.33;;;;;;;;4948245;28;9741;-81
2021/01/03 01:45:06;;;;;;;;;102.00;85.33;;;;;;;;4946441;28;8849;-81
2021/01/03 01:47:37;;;;;;;;;99.33;82.00;;;;;;;;4950168;28;8899;-82
2021/01/03 01:50:08;;;;;;;;;97.00;77.00;;;;;;;;4932221;28;8879;-81
2021/01/03 01:52:39;;;;;;;;;103.00;84.67;;;;;;;;4952713;28;8877;-82
2021/01/03 01:55:10;;;;;;;;;96.33;74.00;;;;;;;;4947418;28;8903;-80
2021/01/03 01:57:40;;;;;;;;;103.67;80.67;;;;;;;;4932837;28;8855;-77
2021/01/03 02:00:11;;;;;;;;;98.67;78.67;;;;;;;;4947573;28;8869;-79
2021/01/03 02:02:43;;;;;;;;;104.67;79.67;;;;;;;;4953689;28;8865;-77
2021/01/03 02:05:15;;;;;;;;;102.67;83.67;;;;;;;;4948630;28;8878;-77
2021/01/03 02:07:50;;;;;;;;;92.00;75.33;;;;;;;;4952891;28;8863;-80
2021/01/03 02:10:21;;;;;;;;;108.67;89.00;;;;;;;;4934994;28;8947;-79
2021/01/03 02:12:51;;;;;;;;;100.00;75.33;;;;;;;;4942022;28;9033;-76
2021/01/03 02:15:26;;;;;;;;;95.00;72.33;;;;;;;;4949151;28;9744;-81
2021/01/03 02:17:54;;;;;;;;;96.00;75.67;;;;;;;;4949434;28;8879;-78
2021/01/03 02:20:22;;;;;;;;;92.67;70.67;;;;;;;;4956563;28;8855;-80
2021/01/03 02:22:51;;;;;;;;;100.67;79.33;;;;;;;;4958382;28;8879;-77
2021/01/03 02:25:21;;;;;;;;;98.00;73.33;;;;;;;;4945988;28;8924;-77
2021/01/03 02:28:03;;;;;;;;;99.00;75.33;;;;;;;;4947211;28;8885;-77
2021/01/03 02:30:31;;;;;;;;;103.00;82.00;;;;;;;;4948789;28;8806;-78
2021/01/03 02:33:08;;;;;;;;;93.67;70.67;;;;;;;;4954035;28;8866;-78
2021/01/03 02:35:36;;;;;;;;;100.33;76.00;;;;;;;;4948598;28;8871;-76
2021/01/03 02:38:05;;;;;;;;;100.33;73.67;;;;;;;;4940509;28;8875;-78
2021/01/03 02:40:33;;;;;;;;;96.00;74.00;;;;;;;;4956929;28;8897;-80
2021/01/03 02:43:01;;;;;;;;;93.67;71.00;;;;;;;;4955200;28;9466;-77
2021/01/03 02:45:30;;;;;;;;;93.33;74.00;;;;;;;;4931883;28;8912;-81
2021/01/03 02:48:00;;;;;;;;;89.67;69.67;;;;;;;;4949433;28;8910;-81
2021/01/03 02:50:27;;;;;;;;;90.00;68.33;;;;;;;;4952576;28;8962;-79
2021/01/03 02:52:54;;;;;;;;;96.00;72.67;;;;;;;;4952838;28;8865;-77
2021/01/03 02:55:21;;;;;;;;;98.67;74.67;;;;;;;;4960314;28;8892;-79
2021/01/03 02:57:49;;;;;;;;;91.67;71.33;;;;;;;;4955381;28;8915;-80
2021/01/03 03:00:21;;;;;;;;;91.33;72.67;;;;;;;;4949337;28;8897;-78
2021/01/03 03:02:49;;;;;;;;;92.33;72.00;;;;;;;;4955514;28;8883;-77
2021/01/03 03:05:16;;;;;;;;;85.67;64.67;;;;;;;;4950361;28;8991;-77
2021/01/03 03:07:42;;;;;;;;;87.00;64.67;;;;;;;;4953013;28;8852;-78
2021/01/03 03:10:10;;;;;;;;;93.00;72.00;;;;;;;;4954981;28;8881;-82
2021/01/03 03:12:37;;;;;;;;;97.00;71.00;;;;;;;;4960811;28;8867;-79
2021/01/03 03:15:07;;;;;;;;;92.00;70.33;;;;;;;;4954853;28;8874;-80
2021/01/03 03:17:34;;;;;;;;;95.00;72.33;;;;;;;;4949005;28;8983;-79
2021/01/03 03:20:01;;;;;;;;;83.33;65.67;;;;;;;;4953653;28;8913;-79
2021/01/03 03:22:28;;;;;;;;;84.00;69.00;;;;;;;;4955304;28;8910;-79
2021/01/03 03:24:55;;;;;;;;;89.00;68.00;;;;;;;;4954951;28;8987;-78
2021/01/03 03:27:22;;;;;;;;;90.33;71.67;;;;;;;;4958916;28;8913;-83
2021/01/03 03:29:49;;;;;;;;;79.67;64.00;;;;;;;;4937423;28;8958;-79
2021/01/03 03:32:16;;;;;;;;;76.00;61.67;;;;;;;;4959531;28;8842;-79
2021/01/03 03:34:43;;;;;;;;;89.00;66.67;;;;;;;;4954435;28;9661;-79
2021/01/03 03:37:10;;;;;;;;;85.67;66.67;;;;;;;;4951251;28;9674;-80
2021/01/03 03:39:37;;;;;;;;;77.67;63.67;;;;;;;;4955678;28;8899;-80
2021/01/03 03:42:04;;;;;;;;;94.67;71.67;;;;;;;;4931136;28;8854;-80
2021/01/03 03:44:31;;;;;;;;;86.67;67.00;;;;;;;;4959156;28;8878;-80
2021/01/03 03:47:01;;;;;;;;;78.33;60.00;;;;;;;;4952234;28;8853;-82
2021/01/03 03:49:29;;;;;;;;;77.00;58.67;;;;;;;;4953196;28;8879;-81
2021/01/03 03:54:32;;;;;;;;;83.00;61.67;;;;;;;;5321361;23;8984;-80
2021/01/03 03:57:01;;;;;;;;;74.33;61.33;;;;;;;;5033047;28;8855;-81
2021/01/03 03:59:28;;;;;;;;;71.67;58.33;;;;;;;;5028416;28;8901;-82
2021/01/03 04:01:55;;;;;;;;;87.00;65.33;;;;;;;;5022997;28;8827;-80
2021/01/03 04:04:25;;;;;;;;;80.33;64.00;;;;;;;;5006043;28;8873;-80
2021/01/03 04:06:52;;;;;;;;;75.67;61.67;;;;;;;;5035223;28;8880;-79
2021/01/03 04:09:20;;;;;;;;;77.67;62.67;;;;;;;;5031551;28;8871;-79
2021/01/03 04:11:49;;;;;;;;;80.67;60.00;;;;;;;;5034880;28;9748;-79
2021/01/03 04:14:18;;;;;;;;;72.67;57.67;;;;;;;;5027324;28;8904;-78
2021/01/03 04:16:46;;;;;;;;;78.33;64.00;;;;;;;;5032110;28;8886;-78
2021/01/03 04:19:14;;;;;;;;;80.00;59.00;;;;;;;;5029112;28;8860;-81
2021/01/03 04:21:41;;;;;;;;;74.67;60.67;;;;;;;;5028493;28;8877;-82
2021/01/03 04:24:10;;;;;;;;;73.67;59.33;;;;;;;;5024965;28;8853;-80
2021/01/03 04:26:37;;;;;;;;;74.00;61.00;;;;;;;;5026553;28;8850;-79
2021/01/03 04:29:04;;;;;;;;;83.67;64.67;;;;;;;;5029992;28;8854;-83
2021/01/03 04:31:31;;;;;;;;;81.67;62.00;;;;;;;;5013675;28;8865;-83
2021/01/03 04:33:58;;;;;;;;;82.67;59.00;;;;;;;;5030847;28;9637;-82
2021/01/03 04:36:25;;;;;;;;;81.33;61.33;;;;;;;;5023784;28;8864;-81
2021/01/03 04:38:52;;;;;;;;;72.33;56.33;;;;;;;;5030539;28;8888;-79
2021/01/03 04:41:26;;;;;;;;;78.00;61.67;;;;;;;;5026817;28;10240;-83
2021/01/03 04:43:53;;;;;;;;;80.33;63.33;;;;;;;;5025215;28;8882;-79
2021/01/03 04:46:22;;;;;;;;;77.00;62.33;;;;;;;;5030881;28;8901;-78
2021/01/03 04:48:51;;;;;;;;;80.33;65.00;;;;;;;;5021870;28;8933;-77
2021/01/03 04:51:25;;;;;;;;;77.33;59.67;;;;;;;;5022288;28;9619;-76
2021/01/03 04:53:58;;;;;;;;;75.00;60.67;;;;;;;;5016412;28;8877;-81
2021/01/03 04:56:35;;;;;;;;;73.00;56.00;;;;;;;;5011991;28;8865;-79
2021/01/03 04:59:08;;;;;;;;;72.00;58.67;;;;;;;;5027810;28;11567;-79
2021/01/03 05:02:16;;;;;;;;;68.67;55.00;;;;;;;;5006862;28;8858;-79
2021/01/03 05:05:06;;;;;;;;;74.00;55.33;;;;;;;;5011452;28;12530;-80
2021/01/03 05:07:36;;;;;;;;;72.33;57.67;;;;;;;;5021579;28;11498;-79
2021/01/03 05:10:11;;;;;;;;;71.00;54.67;;;;;;;;5029381;28;11595;-81
2021/01/03 05:12:49;;;;;;;;;61.50;49.75;;;;;;;;5021185;28;12955;-81
2021/01/03 05:15:23;;;;;;;;;65.00;49.25;;;;;;;;5015925;28;11566;-80
2021/01/03 05:17:50;;;;;;;;;61.75;51.50;;;;;;;;5021315;28;12426;-78
2021/01/03 05:20:18;;;;;;;;;67.00;45.75;;;;;;;;5022992;28;11513;-82
2021/01/03 05:22:44;;;;;;;;;65.33;49.67;;;;;;;;5000417;28;11619;-79
2021/01/03 05:25:14;;;;;;;;;55.75;46.50;;;;;;;;5009499;28;11541;-81
2021/01/03 05:27:42;;;;;;;;;63.00;49.00;;;;;;;;5022352;28;11531;-79
2021/01/03 05:30:19;;;;;;;;;49.00;42.00;;;;;;;;5019251;28;12332;-81
2021/01/03 05:32:46;;;;;;;;;55.75;40.25;;;;;;;;5023937;28;11748;-77
2021/01/03 05:35:26;;;;;;;;;48.75;39.75;;;;;;;;5020564;28;11631;-81
2021/01/03 05:37:55;;;;;;;;;47.00;39.00;;;;;;;;5018930;28;11621;-79
2021/01/03 05:40:31;;;;;;;;;43.75;39.50;;;;;;;;5037083;28;11591;-80
2021/01/03 05:43:18;;;;;;;;;46.50;41.50;;;;;;;;5005186;28;11594;-80
2021/01/03 05:46:03;;;;;;;;;42.00;34.75;;;;;;;;5027799;28;11683;-76
2021/01/03 05:48:38;;;;;;;;;47.75;40.00;;;;;;;;5019507;28;11571;-78
2021/01/03 05:51:20;;;;;;;;;42.75;36.25;;;;;;;;5022092;28;11596;-77
2021/01/03 05:53:47;;;;;;;;;43.00;38.75;;;;;;;;5027886;28;11575;-79
2021/01/03 05:56:23;;;;;;;;;41.75;37.00;;;;;;;;5027647;28;11495;-77
2021/01/03 05:58:54;;;;;;;;;38.00;34.00;;;;;;;;5002772;28;12431;-79
2021/01/03 06:01:25;;;;;;;;;45.50;35.75;;;;;;;;5028442;28;11544;-79
2021/01/03 06:04:10;;;;;;;;;39.00;33.25;;;;;;;;5024495;28;11552;-79
2021/01/03 06:07:13;;;;;;;;;49.00;40.75;;;;;;;;5036847;28;11596;-78
2021/01/03 06:09:41;;;;;;;;;46.75;38.00;;;;;;;;5024842;28;11579;-79
2021/01/03 06:12:15;;;;;;;;;45.00;36.50;;;;;;;;5035876;28;11700;-77
2021/01/03 06:14:43;;;;;;;;;37.75;32.25;;;;;;;;5023452;28;11668;-81
2021/01/03 06:17:28;;;;;;;;;62.25;47.25;;;;;;;;5015113;28;11535;-79
2021/01/03 06:20:01;;;;;;;;;35.50;29.00;;;;;;;;5013159;28;12475;-80
2021/01/03 06:22:41;;;;;;;;;58.25;45.00;;;;;;;;5022439;28;11581;-80
2021/01/03 06:25:42;;;;;;;;;72.33;54.00;;;;;;;;5033230;28;11658;-78
2021/01/03 06:28:15;;;;;;;;;74.67;53.67;;;;;;;;4985151;28;11598;-83
2021/01/03 06:30:50;;;;;;;;;53.50;45.25;;;;;;;;5027208;28;11540;-81
2021/01/03 06:33:42;;;;;;;;;48.50;43.25;;;;;;;;5041367;28;11646;-82
2021/01/03 06:36:14;;;;;;;;;53.00;41.25;;;;;;;;5025402;28;11568;-81
2021/01/03 06:39:01;;;;;;;;;47.75;44.00;;;;;;;;5042744;28;11586;-83
2021/01/03 06:41:49;;;;;;;;;65.50;46.25;;;;;;;;5038499;28;11599;-81
2021/01/03 06:44:44;;;;;;;;;56.00;48.33;;;;;;;;5022824;28;12567;-79
2021/01/03 06:47:51;;;;;;;;;65.50;52.75;;;;;;;;5004812;28;11574;-76
2021/01/03 06:50:44;;;;;;;;;53.00;43.25;;;;;;;;5027596;28;11666;-80
2021/01/03 06:53:32;;;;;;;;;44.25;36.75;;;;;;;;5026325;28;11630;-75
2021/01/03 06:56:34;;;;;;;;;30.25;24.75;;;;;;;;5016493;28;12463;-75
2021/01/03 06:59:25;;;;;;;;;41.75;38.50;;;;;;;;5013170;28;11548;-74
2021/01/03 07:01:52;;;;;;;;;41.50;36.00;;;;;;;;5035353;28;11506;-76
2021/01/03 07:04:24;;;;;;;;;31.50;27.50;;;;;;;;5020393;28;11576;-76
2021/01/03 07:06:52;;;;;;;;;37.00;34.25;;;;;;;;5034309;28;11588;-75
2021/01/03 07:09:19;;;;;;;;;35.75;31.25;;;;;;;;5014779;28;11600;-80
2021/01/03 07:11:49;;;;;;;;;33.00;31.50;;;;;;;;5014201;28;11584;-79
2021/01/03 07:14:53;;;;;;;;;47.25;33.50;;;;;;;;5025589;28;11591;-75
2021/01/03 07:17:42;;;;;;;;;35.75;32.50;;;;;;;;5023218;28;12274;-75
2021/01/03 07:20:13;;;;;;;;;33.50;29.25;;;;;;;;5022934;28;11540;-76
2021/01/03 07:22:54;;;;;;;;;31.25;25.50;;;;;;;;5039658;28;11578;-76
2021/01/03 07:25:23;;;;;;;;;34.00;26.50;;;;;;;;5037836;28;11556;-75
2021/01/03 07:28:08;;;;;;;;;29.25;24.75;;;;;;;;5034646;28;11546;-71
2021/01/03 07:31:02;;;;;;;;;39.00;29.50;;;;;;;;5024146;28;11596;-68
2021/01/03 07:33:51;;;;;;;;;27.50;25.75;;;;;;;;5030989;28;11560;-71
2021/01/03 07:36:40;;;;;;;;;31.50;26.25;;;;;;;;5018353;28;11617;-72
2021/01/03 07:39:27;;;;;;;;;32.25;30.75;;;;;;;;5024990;28;11562;-70
2021/01/03 07:42:16;;;;;;;;;40.25;32.75;;;;;;;;5027331;28;11561;-72
2021/01/03 07:44:43;;;;;;;;;26.50;19.25;;;;;;;;5016404;28;11585;-71
2021/01/03 07:47:10;;;;;;;;;26.75;24.50;;;;;;;;5025649;28;11587;-71
2021/01/03 07:49:40;;;;;;;;;32.75;29.25;;;;;;;;5030711;28;12428;-70
2021/01/03 07:52:39;;;;;;;;;30.00;22.75;;;;;;;;5024462;28;11572;-71
2021/01/03 07:55:07;;;;;;;;;33.50;32.00;;;;;;;;4991042;28;11569;-70
2021/01/03 07:57:34;;;;;;;;;34.50;28.00;;;;;;;;5023705;28;11588;-71
2021/01/03 08:00:01;;;;;;;;;36.75;29.50;;;;;;;;5027896;28;11685;-70
2021/01/03 08:02:30;;;;;;;;;27.00;22.25;;;;;;;;5021801;28;11615;-70
2021/01/03 08:05:00;;;;;;;;;28.25;25.00;;;;;;;;5027794;28;11562;-70
2021/01/03 08:07:27;;;;;;;;;27.25;20.75;;;;;;;;5032165;28;11714;-71
2021/01/03 08:09:55;;;;;;;;;19.75;19.75;;;;;;;;5009079;28;12336;-71
2021/01/03 08:12:25;;;;;;;;;29.50;26.00;;;;;;;;5022194;28;11591;-70
2021/01/03 08:15:00;;;;;;;;;32.50;25.25;;;;;;;;5025973;28;12334;-70
2021/01/03 08:17:35;;;;;;;;;27.00;24.25;;;;;;;;5021823;28;11560;-70
2021/01/03 08:20:05;;;;;;;;;26.00;23.75;;;;;;;;5023926;28;11539;-70
2021/01/03 08:22:32;;;;;;;;;29.00;25.75;;;;;;;;5016830;28;11698;-72
2021/01/03 08:25:01;;;;;;;;;39.75;35.50;;;;;;;;5030604;28;12275;-71
2021/01/03 08:27:34;;;;;;;;;51.25;34.25;;;;;;;;5015290;28;11561;-71
2021/01/03 08:30:06;;;;;;;;;34.00;30.50;;;;;;;;5029624;28;11590;-70
2021/01/03 08:32:36;;;;;;;;;44.50;32.00;;;;;;;;5029260;28;11533;-71
2021/01/03 08:35:07;;;;;;;;;36.00;33.25;;;;;;;;5028128;28;11575;-73
2021/01/03 08:37:39;;;;;;;;;34.00;27.25;;;;;;;;5035611;28;11568;-71
2021/01/03 08:40:19;;;;;;;;;48.00;34.00;;;;;;;;5008786;28;11558;-71
2021/01/03 08:42:52;;;;;;;;;48.75;37.75;;;;;;;;5027545;28;11595;-71
2021/01/03 08:45:27;;;;;;;;;27.25;25.50;;;;;;;;5024702;28;11594;-70
2021/01/03 08:47:55;;;;;;;;;33.75;31.00;;;;;;;;5014566;28;11574;-71
2021/01/03 08:50:25;;;;;;;;;44.00;39.75;;;;;;;;5012671;28;11585;-70
2021/01/03 08:52:57;;;;;;;;;43.50;41.50;;;;;;;;5023834;28;11558;-69
2021/01/03 08:55:26;;;;;;;;;56.00;50.33;;;;;;;;5019044;28;11690;-69
2021/01/03 08:58:05;;;;;;;;;71.67;57.33;;;;;;;;5015904;28;11554;-69
2021/01/03 09:00:34;;;;;;;;;79.00;63.00;;;;;;;;5016523;28;8812;-69
2021/01/03 09:03:02;;;;;;;;;83.00;61.67;;;;;;;;5015595;28;8850;-69
2021/01/03 09:05:33;;;;;;;;;41.50;41.00;;;;;;;;5020002;28;8896;-68
2021/01/03 09:08:01;;;;;;;;;45.50;40.00;;;;;;;;4992448;28;11576;-69
2021/01/03 09:10:38;;;;;;;;;48.50;42.00;;;;;;;;4997915;28;11583;-72
2021/01/03 09:13:14;;;;;;;;;40.75;33.50;;;;;;;;5021033;28;12325;-69
2021/01/03 09:15:45;;;;;;;;;47.25;42.50;;;;;;;;5041570;28;11594;-71
2021/01/03 09:18:25;;;;;;;;;51.00;42.50;;;;;;;;5028253;28;11510;-71
2021/01/03 09:20:56;;;;;;;;;44.00;38.25;;;;;;;;5038570;28;11600;-71
2021/01/03 09:23:26;;;;;;;;;52.75;41.50;;;;;;;;5024509;28;11561;-71
2021/01/03 09:25:57;;;;;;;;;45.50;42.25;;;;;;;;5017618;28;11582;-70
2021/01/03 09:28:26;;;;;;;;;46.75;43.50;;;;;;;;5020642;28;11550;-71
2021/01/03 09:31:13;;;;;;;;;43.00;37.50;;;;;;;;5007454;28;11465;-71
2021/01/03 09:33:41;;;;;;;;;43.00;33.00;;;;;;;;5026817;28;11564;-71
2021/01/03 09:36:28;;;;;;;;;45.50;35.50;;;;;;;;5024127;28;11576;-71
2021/01/03 09:39:32;;;;;;;;;39.25;36.00;;;;;;;;5028553;28;12235;-71
2021/01/03 09:42:18;;;;;;;;;40.50;34.75;;;;;;;;5028020;28;11584;-70
2021/01/03 09:44:51;;;;;;;;;32.25;27.00;;;;;;;;5013254;28;11565;-70
2021/01/03 09:47:18;;;;;;;;;43.25;34.00;;;;;;;;5022590;28;11665;-72
2021/01/03 09:49:48;;;;;;;;;49.25;40.00;;;;;;;;5022069;28;11705;-71
2021/01/03 09:52:23;;;;;;;;;42.25;38.25;;;;;;;;5022686;28;11556;-71
2021/01/03 09:54:55;;;;;;;;;51.75;38.25;;;;;;;;5021785;28;11582;-71
2021/01/03 09:57:29;;;;;;;;;54.50;43.00;;;;;;;;5022588;28;12350;-71
2021/01/03 09:59:57;;;;;;;;;34.50;32.00;;;;;;;;5021831;28;11687;-69
2021/01/03 10:02:25;;;;;;;;;40.25;34.00;;;;;;;;5018526;28;11667;-69
2021/01/03 10:04:52;;;;;;;;;49.25;37.75;;;;;;;;5023642;28;11639;-70
2021/01/03 10:07:21;;;;;;;;;45.75;34.25;;;;;;;;4995377;28;11565;-69
2021/01/03 10:09:54;;;;;;;;;43.00;34.50;;;;;;;;5022974;28;11657;-69
2021/01/03 10:12:28;;;;;;;;;54.75;43.00;;;;;;;;5024520;28;11569;-70
2021/01/03 10:15:12;;;;;;;;;40.75;32.75;;;;;;;;5015734;28;11625;-70
2021/01/03 10:17:41;;;;;;;;;37.25;35.75;;;;;;;;5024019;28;11630;-68
2021/01/03 10:20:34;;;;;;;;;45.75;41.50;;;;;;;;5025839;28;11602;-69
2021/01/03 10:23:01;;;;;;;;;52.75;43.75;;;;;;;;5023664;28;11604;-68
2021/01/03 10:25:28;;;;;;;;;44.50;42.25;;;;;;;;5007832;28;11617;-68
2021/01/03 10:28:04;;;;;;;;;52.25;41.25;;;;;;;;5024620;28;11557;-67
2021/01/03 10:30:31;;;;;;;;;41.50;37.25;;;;;;;;5022839;28;11550;-67
2021/01/03 10:32:58;;;;;;;;;42.75;38.50;;;;;;;;5021920;28;11697;-68
2021/01/03 10:35:26;;;;;;;;;42.75;35.25;;;;;;;;5025649;28;11653;-69
2021/01/03 10:37:53;;;;;;;;;43.50;39.00;;;;;;;;5021883;28;11574;-69
2021/01/03 10:40:20;;;;;;;;;48.75;40.50;;;;;;;;5026111;28;11628;-69
2021/01/03 10:42:49;;;;;;;;;67.25;53.00;;;;;;;;5025014;28;11587;-68
2021/01/03 10:45:18;;;;;;;;;56.00;48.25;;;;;;;;5018360;28;11581;-68
2021/01/03 10:47:45;;;;;;;;;47.50;41.75;;;;;;;;5019146;28;11542;-68
2021/01/03 10:50:13;;;;;;;;;59.00;44.25;;;;;;;;5038655;28;11595;-68
2021/01/03 10:52:40;;;;;;;;;59.50;46.25;;;;;;;;5023113;28;11598;-69
2021/01/03 10:55:08;;;;;;;;;62.75;46.50;;;;;;;;5026479;28;11687;-69
2021/01/03 10:57:35;;;;;;;;;51.00;46.25;;;;;;;;5014363;28;11629;-69
2021/01/03 11:00:03;;;;;;;;;61.75;49.50;;;;;;;;5017501;28;11571;-70
2021/01/03 11:02:30;;;;;;;;;60.75;49.25;;;;;;;;5027377;28;11540;-72
2021/01/03 11:04:57;;;;;;;;;49.75;43.50;;;;;;;;5013737;28;11671;-70
2021/01/03 11:07:24;;;;;;;;;51.75;46.00;;;;;;;;5014688;28;11731;-69
2021/01/03 11:09:51;;;;;;;;;50.25;45.00;;;;;;;;5029794;28;11589;-70
2021/01/03 11:12:19;;;;;;;;;56.25;44.25;;;;;;;;5021495;28;11587;-71
2021/01/03 11:14:46;;;;;;;;;63.25;48.00;;;;;;;;5031460;28;11653;-71
2021/01/03 11:17:14;;;;;;;;;44.50;42.25;;;;;;;;5023320;28;11680;-71
2021/01/03 11:19:43;;;;;;;;;52.00;44.25;;;;;;;;5020039;28;12603;-71
2021/01/03 11:22:12;;;;;;;;;52.50;46.75;;;;;;;;5023384;28;11537;-70
2021/01/03 11:24:40;;;;;;;;;67.75;55.50;;;;;;;;5014025;28;11557;-69
2021/01/03 11:27:09;;;;;;;;;41.00;37.25;;;;;;;;5011562;28;11540;-68
2021/01/03 11:29:36;;;;;;;;;43.50;40.50;;;;;;;;5017748;28;11549;-69
2021/01/03 11:32:06;;;;;;;;;52.00;44.25;;;;;;;;5012436;28;11588;-70
2021/01/03 11:34:33;;;;;;;;;53.75;45.00;;;;;;;;5013205;28;11567;-69
2021/01/03 11:37:04;;;;;;;;;57.50;44.25;;;;;;;;5013288;28;11575;-68
2021/01/03 11:39:31;;;;;;;;;52.50;47.25;;;;;;;;5018388;28;11588;-69
2021/01/03 11:42:00;;;;;;;;;58.50;48.25;;;;;;;;5030458;28;11606;-72
2021/01/03 11:44:28;;;;;;;;;29.00;24.50;;;;;;;;5030152;28;11579;-70
2021/01/03 11:47:00;;;;;;;;;60.50;50.50;;;;;;;;5022672;28;11553;-71
2021/01/03 11:49:27;;;;;;;;;55.00;45.50;;;;;;;;5030271;28;11505;-70
2021/01/03 11:51:54;;;;;;;;;58.50;49.25;;;;;;;;5030511;28;11753;-69
2021/01/03 11:54:21;;;;;;;;;50.75;41.00;;;;;;;;5037112;28;12327;-69
2021/01/03 11:56:54;;;;;;;;;68.50;54.50;;;;;;;;5030238;28;11591;-68
2021/01/03 11:59:20;;;;;;;;;51.50;41.00;;;;;;;;5032261;28;11544;-69
2021/01/03 12:01:47;;;;;;;;;73.00;59.25;;;;;;;;5017416;28;11607;-69
2021/01/03 12:04:14;;;;;;;;;56.50;47.25;;;;;;;;5027278;28;11635;-69
2021/01/03 12:06:41;;;;;;;;;62.75;50.75;;;;;;;;5031399;28;11564;-69
2021/01/03 12:09:08;;;;;;;;;67.75;54.75;;;;;;;;5030360;28;11574;-69
2021/01/03 12:11:35;;;;;;;;;62.50;48.75;;;;;;;;5018333;28;11578;-69
2021/01/03 12:14:04;;;;;;;;;39.25;35.00;;;;;;;;5019964;28;12404;-69
2021/01/03 12:16:33;;;;;;;;;43.50;37.25;;;;;;;;5021013;28;11783;-70
2021/01/03 12:19:00;;;;;;;;;42.50;40.00;;;;;;;;5017405;28;12300;-69
2021/01/03 12:21:29;;;;;;;;;64.00;51.00;;;;;;;;5019891;28;11594;-68
2021/01/03 12:23:57;;;;;;;;;55.00;44.25;;;;;;;;5013687;28;11565;-69
2021/01/03 12:26:25;;;;;;;;;69.00;54.00;;;;;;;;5019612;28;11553;-69
2021/01/03 12:28:53;;;;;;;;;55.75;45.75;;;;;;;;5005900;28;11599;-69
2021/01/03 12:31:20;;;;;;;;;59.25;44.75;;;;;;;;5012625;28;11540;-68
2021/01/03 12:33:46;;;;;;;;;53.75;44.50;;;;;;;;5015042;28;11518;-69
2021/01/03 12:36:13;;;;;;;;;103.33;88.67;;;;;;;;5021835;28;11620;-69
2021/01/03 12:38:40;;;;;;;;;65.00;54.00;;;;;;;;5009177;28;9604;-69
2021/01/03 12:41:07;;;;;;;;;52.50;42.75;;;;;;;;5007225;28;11506;-68
2021/01/03 12:43:34;;;;;;;;;52.25;45.25;;;;;;;;5012557;28;12363;-69
2021/01/03 12:46:02;;;;;;;;;46.25;42.00;;;;;;;;5031412;28;11610;-69
2021/01/03 12:48:30;;;;;;;;;70.25;58.00;;;;;;;;5028234;28;12390;-69
2021/01/03 12:50:57;;;;;;;;;66.50;53.50;;;;;;;;5024468;28;11589;-71
2021/01/03 12:53:23;;;;;;;;;84.00;65.67;;;;;;;;5024860;28;11590;-71
2021/01/03 12:55:50;;;;;;;;;73.75;56.50;;;;;;;;5026055;28;11584;-69
2021/01/03 12:58:17;;;;;;;;;79.25;61.75;;;;;;;;5027292;28;11627;-70
2021/01/03 13:00:44;;;;;;;;;67.75;49.00;;;;;;;;5024733;28;11593;-71
2021/01/03 13:03:11;;;;;;;;;43.50;34.25;;;;;;;;5025474;28;11628;-69
2021/01/03 13:05:39;;;;;;;;;27.25;20.25;;;;;;;;5023511;28;12434;-69
2021/01/03 13:08:06;;;;;;;;;57.75;45.50;;;;;;;;5023947;28;11647;-68
2021/01/03 13:10:33;;;;;;;;;69.00;53.25;;;;;;;;5018660;28;11597;-68
2021/01/03 13:12:59;;;;;;;;;57.50;46.00;;;;;;;;5019145;28;11624;-68
2021/01/03 13:15:26;;;;;;;;;50.50;42.00;;;;;;;;5023648;28;11519;-69
2021/01/03 13:17:53;;;;;;;;;54.25;47.00;;;;;;;;5005267;28;12150;-69
2021/01/03 13:20:21;;;;;;;;;56.25;47.00;;;;;;;;5017128;28;11567;-69
2021/01/03 13:22:48;;;;;;;;;62.50;53.25;;;;;;;;5006833;28;11560;-69
2021/01/03 13:25:15;;;;;;;;;37.25;36.75;;;;;;;;5013291;28;11578;-69
2021/01/03 13:27:42;;;;;;;;;49.50;41.00;;;;;;;;5023596;28;11550;-68
2021/01/03 13:30:10;;;;;;;;;39.00;37.25;;;;;;;;5024608;28;11583;-69
2021/01/03 13:32:37;;;;;;;;;60.50;47.50;;;;;;;;5026953;28;11554;-69
2021/01/03 13:35:05;;;;;;;;;38.00;34.00;;;;;;;;5023560;28;12350;-71
2021/01/03 13:37:34;;;;;;;;;49.00;42.25;;;;;;;;5027556;28;11677;-69
2021/01/03 13:40:01;;;;;;;;;78.33;60.33;;;;;;;;5029125;28;11630;-69
2021/01/03 13:42:28;;;;;;;;;67.50;57.50;;;;;;;;5022684;28;11634;-69
2021/01/03 13:44:55;;;;;;;;;55.00;45.25;;;;;;;;5019494;28;11588;-69
2021/01/03 13:47:22;;;;;;;;;47.25;40.25;;;;;;;;5005765;28;12390;-69
2021/01/03 13:49:49;;;;;;;;;43.75;41.25;;;;;;;;5028137;28;11589;-70
2021/01/03 13:52:16;;;;;;;;;47.50;41.00;;;;;;;;5025181;28;11589;-70
2021/01/03 13:54:44;;;;;;;;;66.00;51.25;;;;;;;;5023162;28;11592;-70
2021/01/03 13:57:10;;;;;;;;;47.00;43.00;;;;;;;;5010855;28;11592;-69
2021/01/03 13:59:39;;;;;;;;;53.25;43.75;;;;;;;;5018673;28;11572;-69
2021/01/03 14:02:12;;;;;;;;;38.50;34.50;;;;;;;;5027824;28;11574;-69
2021/01/03 14:04:39;;;;;;;;;52.00;41.00;;;;;;;;5002326;28;11586;-69
2021/01/03 14:07:07;;;;;;;;;41.75;39.75;;;;;;;;5006316;28;12652;-69
2021/01/03 14:09:34;;;;;;;;;43.50;37.75;;;;;;;;5021665;28;11585;-69
2021/01/03 14:12:02;;;;;;;;;36.50;32.50;;;;;;;;5015099;28;11566;-69
2021/01/03 14:14:29;;;;;;;;;40.00;35.25;;;;;;;;5024595;28;11598;-70
2021/01/03 14:16:57;;;;;;;;;43.25;41.75;;;;;;;;5025872;28;11558;-69
2021/01/03 14:19:25;;;;;;;;;38.75;36.00;;;;;;;;5025069;28;12501;-69
2021/01/03 14:21:52;;;;;;;;;58.00;45.00;;;;;;;;5025834;28;11692;-70
2021/01/03 14:24:21;;;;;;;;;60.75;45.25;;;;;;;;5026015;28;11614;-69
2021/01/03 14:26:49;;;;;;;;;48.25;40.50;;;;;;;;5027655;28;11640;-69
2021/01/03 14:29:19;;;;;;;;;45.00;35.75;;;;;;;;5031203;28;11642;-69
2021/01/03 14:31:51;;;;;;;;;30.25;24.25;;;;;;;;5020014;28;11524;-69
2021/01/03 14:34:24;;;;;;;;;37.75;30.75;;;;;;;;5023602;28;11585;-69
2021/01/03 14:36:52;;;;;;;;;40.75;35.50;;;;;;;;5032960;28;11530;-69
2021/01/03 14:39:23;;;;;;;;;46.50;41.25;;;;;;;;5028548;28;11583;-70
2021/01/03 14:41:53;;;;;;;;;40.00;34.50;;;;;;;;5027910;28;11564;-69
2021/01/03 14:44:24;;;;;;;;;34.75;32.50;;;;;;;;5029462;28;12413;-68
2021/01/03 14:46:57;;;;;;;;;50.75;44.25;;;;;;;;5021470;28;11226;-69